Time;durP1;ratioP1;P1;durP2;ratioP2;P2;SDS_P1;SDS_P2;PMS_P1;PMS_P2;Temp;Humidity;BMP_temperature;BMP_pressure;BME280_temperature;BME280_humidity;BME280_pressure;Samples;Min_cycle;Max_cycle;Signal;HPM_P1;HPM_P2
2023/05/30 00:00:27;;;;;;;;;23.00;21.75;;;;;18.17;72.81;100129.72;5066196;28;45320;-83
2023/05/30 00:02:53;;;;;;;;;26.25;24.50;;;;;18.09;74.18;100158.84;5059418;28;45434;-83
2023/05/30 00:05:18;;;;;;;;;26.75;23.75;;;;;18.16;74.37;100173.75;5063731;28;45855;-79
2023/05/30 00:07:44;;;;;;;;;32.50;30.25;;;;;18.00;75.35;100185.31;5058485;28;45417;-80
2023/05/30 00:10:10;;;;;;;;;32.50;30.25;;;;;17.98;75.95;100184.47;5057025;28;45272;-79
2023/05/30 00:12:35;;;;;;;;;37.00;31.00;;;;;17.99;76.75;100171.25;5061312;28;45478;-80
2023/05/30 00:15:02;;;;;;;;;33.00;30.75;;;;;17.41;76.15;100060.63;5068470;28;45430;-80
2023/05/30 00:17:28;;;;;;;;;32.25;26.75;;;;;18.11;75.17;100164.13;5067955;28;45485;-79
2023/05/30 00:19:54;;;;;;;;;30.00;28.50;;;;;18.19;75.24;100159.66;5059791;28;45437;-82
2023/05/30 00:22:20;;;;;;;;;29.00;28.00;;;;;17.96;75.64;100114.88;5069765;28;45565;-83
2023/05/30 00:24:46;;;;;;;;;27.75;26.75;;;;;17.46;75.36;100041.19;5066151;28;45343;-83
2023/05/30 00:27:13;;;;;;;;;31.50;27.25;;;;;17.92;74.80;100119.31;5065951;28;45597;-83
2023/05/30 00:29:39;;;;;;;;;28.25;26.75;;;;;17.89;74.48;100121.97;5068444;28;45518;-83
2023/05/30 00:32:05;;;;;;;;;31.75;29.75;;;;;17.40;74.22;100033.31;5070212;28;46159;-82
2023/05/30 00:34:30;;;;;;;;;25.75;23.25;;;;;18.00;74.43;100140.41;5068150;28;45658;-83
2023/05/30 00:36:56;;;;;;;;;28.50;26.50;;;;;18.10;74.10;100165.88;5062724;28;45605;-80
2023/05/30 00:39:21;;;;;;;;;31.75;27.00;;;;;17.65;74.33;100081.59;5069010;28;45680;-80
2023/05/30 00:41:47;;;;;;;;;28.75;25.75;;;;;18.11;74.29;100164.13;5062382;28;45481;-79
2023/05/30 00:44:13;;;;;;;;;21.25;20.75;;;;;17.49;73.17;100038.56;5071594;28;45471;-82
2023/05/30 00:46:39;;;;;;;;;26.75;26.25;;;;;18.21;73.27;100153.47;5061986;28;45571;-80
2023/05/30 00:49:05;;;;;;;;;27.50;25.25;;;;;18.23;73.10;100153.47;5062739;28;45531;-80
2023/05/30 00:51:32;;;;;;;;;27.50;23.25;;;;;17.60;72.87;100059.59;5060918;28;45476;-80
2023/05/30 00:53:59;;;;;;;;;31.75;26.75;;;;;18.13;73.28;100143.84;5072821;28;45434;-78
2023/05/30 00:56:28;;;;;;;;;30.50;26.50;;;;;18.08;73.75;100150.03;5066948;28;45485;-79
2023/05/30 00:58:58;;;;;;;;;24.75;24.50;;;;;18.21;73.56;100163.16;5070157;28;45556;-79
2023/05/30 01:01:24;;;;;;;;;28.75;27.00;;;;;18.24;73.47;100164.03;5069187;28;45493;-80
2023/05/30 01:03:50;;;;;;;;;28.00;25.00;;;;;18.26;73.26;100148.13;5073592;28;46613;-79
2023/05/30 01:06:17;;;;;;;;;25.25;23.00;;;;;18.28;72.91;100143.69;5068794;28;45520;-80
2023/05/30 01:08:43;;;;;;;;;35.75;29.00;;;;;18.28;73.05;100147.25;5070980;28;45315;-80
2023/05/30 01:11:26;;;;;;;;;32.25;28.50;;;;;18.05;73.42;100125.41;5060595;28;45501;-80
2023/05/30 01:14:06;;;;;;;;;31.25;29.00;;;;;17.99;74.07;100136.00;5074195;28;45525;-80
2023/05/30 01:16:40;;;;;;;;;32.25;29.50;;;;;18.04;74.07;100150.94;5061132;28;45289;-81
2023/05/30 01:19:30;;;;;;;;;29.75;26.25;;;;;18.02;74.03;100167.69;5071659;28;45288;-79
2023/05/30 01:22:16;;;;;;;;;28.00;27.00;;;;;17.96;74.78;100163.31;5070550;28;45398;-82
2023/05/30 01:24:50;;;;;;;;;30.75;27.25;;;;;17.95;75.12;100169.50;5062031;28;45580;-79
2023/05/30 01:27:39;;;;;;;;;28.75;27.25;;;;;17.39;75.15;100078.22;5061335;28;45540;-83
2023/05/30 01:30:08;;;;;;;;;29.75;25.75;;;;;17.91;75.24;100166.91;5070762;28;45530;-80
2023/05/30 01:32:33;;;;;;;;;28.00;24.25;;;;;17.92;74.52;100163.34;5061498;28;45530;-82
2023/05/30 01:35:00;;;;;;;;;32.25;28.25;;;;;17.95;74.88;100161.56;5066512;28;46225;-82
2023/05/30 01:37:25;;;;;;;;;29.25;26.25;;;;;18.00;74.38;100161.53;5068708;28;45414;-83
2023/05/30 01:39:51;;;;;;;;;26.00;24.50;;;;;18.00;74.84;100162.41;5068536;28;45647;-82
2023/05/30 01:42:23;;;;;;;;;28.00;24.50;;;;;17.59;74.66;100102.75;5069178;28;45484;-82
2023/05/30 01:45:00;;;;;;;;;30.00;28.25;;;;;17.68;74.45;100126.47;5071034;28;45635;-80
2023/05/30 01:47:40;;;;;;;;;27.75;25.00;;;;;17.41;74.47;100079.09;5070776;28;45540;-83
2023/05/30 01:50:23;;;;;;;;;27.50;23.25;;;;;17.85;75.23;100167.81;5064721;28;45504;-81
2023/05/30 01:52:58;;;;;;;;;28.50;26.00;;;;;17.80;74.90;100170.44;5076336;28;45456;-83
2023/05/30 01:55:25;;;;;;;;;22.75;22.75;;;;;17.57;74.51;100130.94;5069460;28;45524;-83
2023/05/30 01:57:52;;;;;;;;;25.50;23.75;;;;;17.77;74.35;100172.22;5070313;28;45407;-83
2023/05/30 02:00:19;;;;;;;;;23.50;22.50;;;;;17.74;74.62;100173.09;5063160;28;45429;-83
2023/05/30 02:02:45;;;;;;;;;26.00;24.25;;;;;17.63;75.31;100162.59;5076059;28;45417;-83
2023/05/30 02:05:11;;;;;;;;;23.75;22.50;;;;;17.60;74.59;100159.97;5071655;27;45865;-82
2023/05/30 02:07:37;;;;;;;;;26.00;23.75;;;;;17.31;74.26;100107.31;5066588;28;45528;-83
2023/05/30 02:10:03;;;;;;;;;26.25;23.75;;;;;17.23;74.46;100094.16;5064015;28;45972;-83
2023/05/30 02:12:29;;;;;;;;;25.75;23.00;;;;;17.59;74.91;100158.22;5064569;28;45549;-82
2023/05/30 02:14:54;;;;;;;;;28.50;26.25;;;;;17.52;75.08;100152.97;5067933;28;46068;-83
2023/05/30 02:17:24;;;;;;;;;23.50;22.25;;;;;17.50;74.78;100160.91;5060642;28;45433;-83
2023/05/30 02:19:50;;;;;;;;;27.25;24.25;;;;;17.39;75.20;100175.91;5069065;28;45415;-83
2023/05/30 02:22:19;;;;;;;;;24.75;22.25;;;;;17.36;74.94;100152.16;5063466;28;45279;-83
2023/05/30 02:24:45;;;;;;;;;24.50;22.25;;;;;16.82;75.23;100054.72;5074118;28;46455;-82
2023/05/30 02:27:10;;;;;;;;;25.25;23.50;;;;;17.27;74.81;100138.13;5067121;28;45405;-83
2023/05/30 02:29:36;;;;;;;;;25.25;25.00;;;;;17.37;75.08;100149.53;5061639;28;45440;-82
2023/05/30 02:32:02;;;;;;;;;22.75;21.25;;;;;17.34;75.01;100148.66;5072473;28;45553;-82
2023/05/30 02:34:27;;;;;;;;;26.00;22.50;;;;;16.93;75.50;100099.53;5066841;28;45624;-82
2023/05/30 02:36:53;;;;;;;;;22.00;21.00;;;;;17.26;75.43;100152.19;5068888;28;45437;-79
2023/05/30 02:39:18;;;;;;;;;26.00;25.00;;;;;17.28;75.54;100152.19;5060321;28;45444;-82
2023/05/30 02:41:44;;;;;;;;;24.00;20.50;;;;;16.82;75.09;100074.06;5067574;28;45471;-81
2023/05/30 02:44:10;;;;;;;;;23.00;22.00;;;;;17.18;74.84;100130.22;5060716;28;45523;-82
2023/05/30 02:46:35;;;;;;;;;23.00;22.00;;;;;17.08;74.95;100110.03;5063060;28;45520;-79
2023/05/30 02:49:02;;;;;;;;;23.25;21.25;;;;;17.27;74.94;100153.09;5063820;28;45313;-78
2023/05/30 02:51:28;;;;;;;;;27.00;25.50;;;;;17.15;74.70;100127.63;5066452;28;45351;-82
2023/05/30 02:53:53;;;;;;;;;24.25;23.00;;;;;17.14;75.88;100143.44;5060432;28;46215;-78
2023/05/30 02:56:20;;;;;;;;;26.75;24.75;;;;;16.78;75.83;100101.28;5062598;28;45297;-79
2023/05/30 02:58:46;;;;;;;;;26.75;25.00;;;;;16.99;76.04;100152.28;5070181;28;45470;-82
2023/05/30 03:01:12;;;;;;;;;28.50;25.00;;;;;16.71;75.79;100104.81;5068583;28;45366;-82
2023/05/30 03:03:37;;;;;;;;;28.00;24.50;;;;;16.46;76.27;100073.22;5061519;28;45930;-82
2023/05/30 03:06:04;;;;;;;;;24.50;23.00;;;;;16.81;76.43;100151.47;5066495;28;45327;-82
2023/05/30 03:08:31;;;;;;;;;25.75;24.75;;;;;16.84;76.70;100153.19;5071359;28;45442;-78
2023/05/30 03:10:56;;;;;;;;;27.25;26.25;;;;;16.86;76.45;100136.47;5071961;28;45258;-82
2023/05/30 03:13:22;;;;;;;;;29.75;25.50;;;;;16.65;76.71;100110.09;5066461;28;46127;-79
2023/05/30 03:15:48;;;;;;;;;26.25;23.00;;;;;16.85;76.35;100145.28;5066226;28;45445;-82
2023/05/30 03:18:13;;;;;;;;;23.75;23.75;;;;;16.85;76.05;100139.13;5065524;28;45271;-82
2023/05/30 03:20:40;;;;;;;;;24.75;23.75;;;;;16.82;76.02;100145.28;5061734;28;45186;-82
2023/05/30 03:23:06;;;;;;;;;23.00;21.75;;;;;16.47;75.87;100096.09;5066199;28;45414;-79
2023/05/30 03:25:32;;;;;;;;;24.25;21.25;;;;;16.81;75.52;100155.78;5066509;28;45564;-82
2023/05/30 03:27:58;;;;;;;;;21.50;20.25;;;;;16.71;75.46;100139.09;5069825;28;45712;-80
2023/05/30 03:30:26;;;;;;;;;23.25;21.25;;;;;16.72;75.61;100153.19;5066988;28;45437;-80
2023/05/30 03:32:53;;;;;;;;;23.75;22.75;;;;;16.59;75.55;100155.84;5061365;28;45568;-81
2023/05/30 03:35:19;;;;;;;;;24.00;22.00;;;;;16.56;75.88;100162.88;5072577;28;45509;-82
2023/05/30 03:37:44;;;;;;;;;27.00;25.75;;;;;16.44;76.02;100140.03;5068010;28;45166;-82
2023/05/30 03:40:11;;;;;;;;;24.25;21.75;;;;;16.27;77.00;100125.09;5073554;28;45534;-82
2023/05/30 03:42:37;;;;;;;;;24.25;23.00;;;;;16.45;76.91;100155.88;5070014;28;45548;-79
2023/05/30 03:45:02;;;;;;;;;25.50;25.25;;;;;16.49;76.90;100160.25;5063661;28;45509;-82
2023/05/30 03:47:28;;;;;;;;;24.50;20.50;;;;;16.48;76.81;100155.84;5067440;28;45488;-82
2023/05/30 03:49:53;;;;;;;;;22.00;21.50;;;;;16.42;76.44;100155.84;5055769;28;45438;-82
2023/05/30 03:52:19;;;;;;;;;19.25;18.50;;;;;16.45;75.83;100153.22;5069490;28;46229;-82
2023/05/30 03:54:45;;;;;;;;;26.25;22.50;;;;;16.47;75.20;100158.47;5066300;28;45409;-82
2023/05/30 03:57:11;;;;;;;;;25.75;24.00;;;;;16.30;75.49;100143.53;5060460;28;45458;-82
2023/05/30 03:59:36;;;;;;;;;23.00;22.00;;;;;15.92;76.40;100098.75;5057932;28;45632;-78
2023/05/30 04:02:02;;;;;;;;;19.25;17.75;;;;;16.26;76.11;100159.38;5056024;28;45530;-81
2023/05/30 04:04:27;;;;;;;;;24.75;22.25;;;;;16.30;76.10;100167.25;5056924;28;45339;-79
2023/05/30 04:06:53;;;;;;;;;20.50;19.50;;;;;16.30;76.23;100159.34;5057183;28;45307;-83
2023/05/30 04:09:19;;;;;;;;;21.25;19.50;;;;;16.28;75.97;100157.59;5057391;28;45346;-84
2023/05/30 04:11:45;;;;;;;;;20.00;19.00;;;;;16.19;76.31;100139.16;5074042;28;45644;-83
2023/05/30 04:14:10;;;;;;;;;21.00;20.50;;;;;16.02;76.33;100118.06;5076952;28;45193;-82
2023/05/30 04:16:36;;;;;;;;;18.75;18.00;;;;;15.96;75.94;100105.75;5077311;28;45247;-82
2023/05/30 04:19:01;;;;;;;;;23.50;21.00;;;;;16.09;75.42;100125.97;5082032;28;45208;-82
2023/05/30 04:21:27;;;;;;;;;21.50;20.00;;;;;16.19;75.82;100145.28;5077192;28;45316;-82
2023/05/30 04:23:53;;;;;;;;;26.25;23.00;;;;;16.14;75.88;100160.22;5076326;28;45476;-82
2023/05/30 04:26:19;;;;;;;;;23.00;22.00;;;;;16.06;76.34;100170.75;5077144;28;45362;-82
2023/05/30 04:28:45;;;;;;;;;27.00;24.25;;;;;15.99;76.67;100171.63;5077725;27;45327;-81
2023/05/30 04:31:10;;;;;;;;;23.25;21.00;;;;;15.77;76.68;100152.25;5076939;28;45436;-82
2023/05/30 04:33:37;;;;;;;;;25.00;20.50;;;;;15.90;76.77;100176.88;5077324;28;45395;-79
2023/05/30 04:36:08;;;;;;;;;23.50;22.50;;;;;16.02;76.57;100165.50;5077664;28;45292;-79
2023/05/30 04:38:34;;;;;;;;;22.00;20.25;;;;;16.02;76.80;100150.56;5077446;28;45450;-82
2023/05/30 04:41:02;;;;;;;;;25.00;23.25;;;;;16.14;76.32;100154.97;5058607;28;46491;-82
2023/05/30 04:43:29;;;;;;;;;22.50;21.75;;;;;16.30;75.52;100177.81;5058515;28;45572;-82
2023/05/30 04:45:55;;;;;;;;;21.00;20.00;;;;;16.16;75.67;100133.88;5076879;28;45448;-81
2023/05/30 04:48:22;;;;;;;;;22.50;20.75;;;;;16.47;75.22;100176.94;5076902;28;45265;-82
2023/05/30 04:50:48;;;;;;;;;32.25;25.50;;;;;16.59;74.64;100179.59;5076727;28;46228;-82
2023/05/30 04:53:15;;;;;;;;;22.75;19.75;;;;;16.32;73.96;100135.66;5057310;28;45490;-81
2023/05/30 04:55:43;;;;;;;;;28.25;24.75;;;;;16.68;74.01;100176.06;5055393;28;45521;-83
2023/05/30 04:58:08;;;;;;;;;25.00;22.25;;;;;16.10;74.01;100090.84;5055143;28;45416;-82
2023/05/30 05:00:36;;;;;;;;;23.50;20.75;;;;;16.39;74.14;100132.09;5059714;28;45640;-82
2023/05/30 05:03:02;;;;;;;;;23.25;21.50;;;;;16.28;73.97;100120.72;5076693;28;45552;-79
2023/05/30 05:05:28;;;;;;;;;25.50;22.25;;;;;16.75;74.17;100192.75;5058525;28;45481;-83
2023/05/30 05:07:53;;;;;;;;;21.50;19.75;;;;;16.49;74.08;100154.97;5076888;28;45263;-82
2023/05/30 05:10:19;;;;;;;;;23.00;21.00;;;;;16.05;73.72;100047.78;5076426;28;46236;-82
2023/05/30 05:12:44;;;;;;;;;26.50;24.00;;;;;17.01;73.82;100192.72;5076629;28;45326;-82
2023/05/30 05:15:10;;;;;;;;;22.75;22.25;;;;;16.97;73.81;100180.44;5079825;28;45347;-83
2023/05/30 05:17:36;;;;;;;;;20.25;19.75;;;;;17.12;73.24;100176.88;5079126;28;45462;-82
2023/05/30 05:20:05;;;;;;;;;21.50;20.00;;;;;16.56;72.67;100068.81;5079026;28;46615;-82
2023/05/30 05:22:31;;;;;;;;;26.75;22.75;;;;;17.39;72.66;100216.41;5079186;28;45545;-81
2023/05/30 05:24:57;;;;;;;;;23.25;21.75;;;;;17.25;72.46;100170.69;5079315;28;45513;-79
2023/05/30 05:27:22;;;;;;;;;24.25;22.75;;;;;17.63;72.20;100214.56;5078948;28;45508;-78
2023/05/30 05:29:48;;;;;;;;;20.50;19.50;;;;;17.59;71.26;100163.50;5078686;28;45566;-81
2023/05/30 05:32:13;;;;;;;;;21.25;18.75;;;;;18.13;70.33;100223.16;5078877;28;45593;-81
2023/05/30 05:34:39;;;;;;;;;24.00;20.00;;;;;18.32;69.99;100227.41;5079510;28;45547;-81
2023/05/30 05:37:05;;;;;;;;;22.00;19.50;;;;;18.46;69.02;100214.97;5079305;28;45460;-79
2023/05/30 05:39:30;;;;;;;;;21.25;21.00;;;;;18.29;69.23;100187.78;5077783;28;45311;-81
2023/05/30 05:41:56;;;;;;;;;22.75;20.25;;;;;18.48;69.69;100225.53;5078512;28;45529;-81
2023/05/30 05:44:22;;;;;;;;;22.00;20.50;;;;;18.53;69.20;100230.81;5078625;28;45394;-80
2023/05/30 05:46:47;;;;;;;;;22.00;20.50;;;;;18.23;69.30;100161.38;5078651;27;45478;-81
2023/05/30 05:49:13;;;;;;;;;21.00;20.00;;;;;18.61;68.51;100205.16;5078322;28;46328;-80
2023/05/30 05:51:38;;;;;;;;;19.33;18.33;;;;;18.47;68.51;100168.25;5060472;28;45504;-80
2023/05/30 05:54:04;;;;;;;;;18.50;16.25;;;;;18.57;67.91;100164.63;5078668;28;45490;-79
2023/05/30 05:56:30;;;;;;;;;18.00;16.33;;;;;19.04;67.76;100226.84;5078931;28;45188;-82
2023/05/30 05:58:55;;;;;;;;;18.67;17.00;;;;;19.12;67.29;100213.53;5078707;28;45328;-81
2023/05/30 06:01:21;;;;;;;;;17.75;16.25;;;;;19.40;66.33;100173.50;5077351;28;45577;-80
2023/05/30 06:03:46;;;;;;;;;19.67;17.00;;;;;22.29;60.73;100224.25;5078494;28;45454;-78
2023/05/30 06:06:12;;;;;;;;;19.33;16.67;;;;;23.64;54.90;100081.22;5078524;28;45510;-80
2023/05/30 06:08:38;;;;;;;;;16.67;16.67;;;;;25.73;51.61;100156.78;5078330;28;45932;-80
2023/05/30 06:11:04;;;;;;;;;14.33;13.33;;;;;27.18;47.09;100207.94;5076966;28;45470;-78
2023/05/30 06:13:30;;;;;;;;;27.25;26.50;;;;;27.52;46.95;100201.09;5077996;28;45448;-79
2023/05/30 06:15:55;;;;;;;;;18.00;16.33;;;;;28.57;45.92;100209.59;5077820;28;45464;-78
2023/05/30 06:18:21;;;;;;;;;16.00;15.33;;;;;29.82;42.58;100219.22;5077877;28;46242;-79
2023/05/30 06:20:46;;;;;;;;;17.00;16.67;;;;;30.60;40.35;100195.94;5058337;28;45469;-80
2023/05/30 06:23:12;;;;;;;;;32.50;29.25;;;;;31.43;39.35;100201.69;5074348;28;45470;-77
2023/05/30 06:25:37;;;;;;;;;18.33;17.33;;;;;31.86;38.63;100168.44;5066511;28;45433;-80
2023/05/30 06:28:03;;;;;;;;;19.67;18.67;;;;;32.21;37.16;100173.38;5076715;28;45936;-78
2023/05/30 06:30:29;;;;;;;;;17.67;17.33;;;;;32.61;37.27;100227.50;5077664;28;45480;-78
2023/05/30 06:32:54;;;;;;;;;19.33;17.33;;;;;32.54;36.41;100227.03;5077328;28;45545;-79
2023/05/30 06:35:20;;;;;;;;;16.00;16.00;;;;;33.53;36.33;100223.03;5077496;28;45937;-81
2023/05/30 06:37:45;;;;;;;;;16.67;15.00;;;;;34.17;34.05;100206.69;5076895;28;47002;-81
2023/05/30 06:40:11;;;;;;;;;18.67;16.00;;;;;34.82;31.77;100189.16;5077781;28;45340;-81
2023/05/30 06:42:36;;;;;;;;;16.00;14.67;;;;;35.54;32.09;100231.53;5069054;28;45397;-80
2023/05/30 06:45:02;;;;;;;;;16.00;14.33;;;;;34.70;33.08;100214.50;5073300;28;45532;-78
2023/05/30 06:47:28;;;;;;;;;18.67;15.33;;;;;33.29;35.48;100175.06;5077330;28;45507;-79
2023/05/30 06:49:53;;;;;;;;;16.67;15.67;;;;;34.90;33.47;100234.66;5077624;28;45778;-80
2023/05/30 06:52:19;;;;;;;;;16.67;16.33;;;;;35.96;32.29;100191.00;5076945;28;45428;-78
2023/05/30 06:54:46;;;;;;;;;16.67;16.67;;;;;37.06;30.28;100227.13;5064141;28;45463;-77
2023/05/30 06:57:11;;;;;;;;;17.00;16.33;;;;;37.73;29.70;100247.63;5077557;28;45624;-78
2023/05/30 06:59:37;;;;;;;;;16.67;15.33;;;;;38.49;28.03;100244.41;5076221;28;45415;-76
2023/05/30 07:02:03;;;;;;;;;18.67;16.67;;;;;39.26;29.37;100248.19;5077674;28;45608;-75
2023/05/30 07:04:28;;;;;;;;;17.67;17.33;;;;;39.23;26.83;100232.06;5077319;28;45435;-75
2023/05/30 07:06:56;;;;;;;;;14.00;14.00;;;;;39.68;25.91;100253.25;5077896;28;45387;-79
2023/05/30 07:09:21;;;;;;;;;14.00;14.00;;;;;40.04;27.14;100219.75;5077608;28;45391;-79
2023/05/30 07:11:47;;;;;;;;;16.00;14.67;;;;;41.05;25.89;100257.94;5075985;27;45479;-82
2023/05/30 07:14:12;;;;;;;;;20.33;18.67;;;;;41.58;23.81;100256.91;5078014;27;45525;-75
2023/05/30 07:16:38;;;;;;;;;13.67;13.33;;;;;41.90;23.17;100256.28;5077113;27;46088;-74
2023/05/30 07:19:06;;;;;;;;;19.00;17.67;;;;;41.68;22.85;100180.06;5076254;28;45624;-82
2023/05/30 07:21:32;;;;;;;;;18.67;18.67;;;;;42.59;22.76;100258.91;5076618;28;45521;-81
2023/05/30 07:23:57;;;;;;;;;18.00;16.33;;;;;42.81;22.39;100251.91;5057803;28;45556;-80
2023/05/30 07:26:23;;;;;;;;;16.67;15.00;;;;;43.15;21.96;100264.63;5076155;28;45635;-81
2023/05/30 07:28:48;;;;;;;;;21.00;20.00;;;;;43.10;21.58;100267.06;5075603;28;45477;-80
2023/05/30 07:31:15;;;;;;;;;13.67;13.67;;;;;43.25;22.43;100259.81;5077430;28;45619;-79
2023/05/30 07:33:40;;;;;;;;;15.67;14.67;;;;;43.46;21.40;100262.03;5076408;28;45540;-79
2023/05/30 07:36:07;;;;;;;;;12.67;12.67;;;;;43.44;22.11;100257.75;5068648;28;45933;-79
2023/05/30 07:38:33;;;;;;;;;18.00;18.00;;;;;43.64;21.12;100222.47;5061088;28;45514;-81
2023/05/30 07:40:59;;;;;;;;;16.33;15.33;;;;;43.85;21.72;100244.75;5076947;28;45650;-80
2023/05/30 07:43:24;;;;;;;;;18.67;17.33;;;;;43.85;21.26;100236.50;5076389;28;45581;-80
2023/05/30 07:45:50;;;;;;;;;14.00;14.00;;;;;43.74;21.84;100219.53;5075359;28;46534;-81
2023/05/30 07:48:15;;;;;;;;;13.67;13.67;;;;;44.33;20.89;100252.09;5059385;28;45718;-80
2023/05/30 07:50:41;;;;;;;;;12.33;12.00;;;;;44.26;20.51;100249.22;5056784;28;45691;-80
2023/05/30 07:53:06;;;;;;;;;16.00;13.67;;;;;44.92;20.62;100257.94;5064011;28;45419;-81
2023/05/30 07:55:32;;;;;;;;;18.67;16.67;;;;;44.78;20.50;100256.81;5076775;28;46146;-80
2023/05/30 07:57:57;;;;;;;;;13.67;13.00;;;;;44.95;20.24;100251.19;5068449;28;45564;-84
2023/05/30 08:00:23;;;;;;;;;17.33;15.00;;;;;45.02;20.42;100217.16;5066850;28;45524;-83
2023/05/30 08:02:49;;;;;;;;;15.00;13.67;;;;;45.84;20.46;100218.19;5074051;28;46351;-80
2023/05/30 08:05:14;;;;;;;;;13.33;13.33;;;;;46.46;20.02;100254.66;5072405;28;45942;-80
2023/05/30 08:07:40;;;;;;;;;16.67;14.00;;;;;46.85;19.41;100267.22;5075498;28;45502;-81
2023/05/30 08:10:06;;;;;;;;;15.33;14.67;;;;;46.95;18.42;100263.03;5065980;28;45714;-78
2023/05/30 08:12:32;;;;;;;;;13.00;13.00;;;;;47.30;19.30;100263.16;5073430;28;45377;-79
2023/05/30 08:15:00;;;;;;;;;13.33;12.33;;;;;47.37;17.69;100238.28;5071541;28;45602;-77
2023/05/30 08:17:27;;;;;;;;;15.00;13.67;;;;;47.01;18.11;100259.47;5058387;28;45749;-82
2023/05/30 08:19:53;;;;;;;;;11.33;11.33;;;;;46.43;19.57;100250.41;5070199;28;45465;-81
2023/05/30 08:22:23;;;;;;;;;13.33;12.67;;;;;46.57;18.62;100234.81;5075768;28;45326;-81
2023/05/30 08:24:59;;;;;;;;;14.33;13.33;;;;;46.19;19.59;100260.72;5074313;28;46161;-76
2023/05/30 08:27:24;;;;;;;;;12.67;11.67;;;;;46.64;19.51;100255.09;5073410;28;45494;-77
2023/05/30 08:29:50;;;;;;;;;13.33;12.67;;;;;47.13;17.73;100232.13;5075144;27;46075;-79
2023/05/30 08:32:16;;;;;;;;;15.33;15.00;;;;;47.09;18.07;100217.00;5074457;28;45714;-80
2023/05/30 08:34:42;;;;;;;;;12.00;12.00;;;;;47.13;17.77;100250.63;5056157;28;47903;-82
2023/05/30 08:37:08;;;;;;;;;11.67;11.33;;;;;47.43;18.31;100251.31;5076551;28;45924;-82
2023/05/30 08:39:33;;;;;;;;;12.00;11.67;;;;;47.40;18.54;100219.38;5070467;28;45401;-81
2023/05/30 08:42:00;;;;;;;;;13.67;13.00;;;;;46.53;18.14;100223.28;5076351;28;45378;-80
2023/05/30 08:44:27;;;;;;;;;10.67;10.67;;;;;46.43;18.10;100259.53;5058233;28;46235;-82
2023/05/30 08:46:53;;;;;;;;;10.00;10.00;;;;;47.37;16.88;100252.13;5075210;28;45258;-82
2023/05/30 08:49:22;;;;;;;;;11.33;9.00;;;;;46.94;17.76;100252.16;5078429;28;46097;-82
2023/05/30 08:51:50;;;;;;;;;12.00;12.00;;;;;45.91;19.58;100252.28;5061668;28;45390;-82
2023/05/30 08:54:19;;;;;;;;;9.33;8.67;;;;;44.92;19.20;100254.31;5060418;28;45724;-81
2023/05/30 08:57:16;;;;;;;;;12.67;12.67;;;;;43.13;20.35;100255.69;5073582;28;45550;-80
2023/05/30 08:59:43;;;;;;;;;12.67;12.33;;;;;42.49;21.57;100215.16;5077282;28;45462;-81
2023/05/30 09:02:12;;;;;;;;;11.33;11.00;;;;;42.84;21.63;100254.31;5067583;28;45564;-81
2023/05/30 09:04:38;;;;;;;;;11.33;11.00;;;;;43.91;20.31;100248.66;5079715;28;46370;-81
2023/05/30 09:07:05;;;;;;;;;12.00;11.00;;;;;43.84;20.22;100247.69;5079093;28;45816;-80
2023/05/30 09:09:33;;;;;;;;;13.00;12.00;;;;;42.58;20.53;100202.28;5073576;28;45513;-82
2023/05/30 09:11:58;;;;;;;;;11.00;11.00;;;;;42.02;21.15;100254.13;5070167;28;45537;-83
2023/05/30 09:14:24;;;;;;;;;11.00;11.00;;;;;41.33;22.74;100255.94;5076785;28;45430;-80
2023/05/30 09:16:50;;;;;;;;;11.67;11.67;;;;;40.38;23.19;100228.19;5063619;28;46094;-81
2023/05/30 09:19:15;;;;;;;;;12.33;12.00;;;;;39.71;24.59;100252.94;5071073;27;45390;-80
2023/05/30 09:21:41;;;;;;;;;14.00;13.00;;;;;40.05;24.92;100254.28;5071204;28;45437;-82
2023/05/30 09:24:07;;;;;;;;;12.00;12.00;;;;;39.52;24.26;100023.44;5062241;28;46258;-81
2023/05/30 09:26:33;;;;;;;;;16.00;14.00;;;;;41.15;23.23;100118.94;5074081;28;45493;-82
2023/05/30 09:29:12;;;;;;;;;12.33;12.33;;;;;42.56;22.69;100244.66;5059095;28;45312;-81
2023/05/30 09:31:40;;;;;;;;;12.67;12.33;;;;;43.30;22.29;100245.59;5059147;28;45462;-82
2023/05/30 09:34:06;;;;;;;;;13.33;12.67;;;;;43.73;21.35;100223.31;5058514;28;45446;-82
2023/05/30 09:36:31;;;;;;;;;12.33;11.33;;;;;43.90;20.80;100244.22;5065047;28;46004;-83
2023/05/30 09:39:02;;;;;;;;;13.67;13.33;;;;;44.27;21.46;100239.91;5068274;28;45369;-81
2023/05/30 09:41:28;;;;;;;;;12.67;12.33;;;;;44.04;21.15;100245.34;5055698;28;45315;-82
2023/05/30 09:43:55;;;;;;;;;14.67;12.67;;;;;43.64;21.10;100253.56;5074792;28;45500;-82
2023/05/30 09:46:29;;;;;;;;;11.67;11.67;;;;;43.66;21.14;100250.66;5058828;28;45182;-83
2023/05/30 09:48:56;;;;;;;;;9.67;9.67;;;;;43.48;22.14;100240.72;5058698;28;45224;-81
2023/05/30 09:51:25;;;;;;;;;15.00;14.33;;;;;43.39;21.67;100236.28;5059727;28;47210;-81
2023/05/30 09:54:02;;;;;;;;;10.00;10.00;;;;;43.36;21.85;100235.78;5058292;28;46390;-80
2023/05/30 09:56:38;;;;;;;;;11.33;10.33;;;;;43.03;21.36;100235.78;5058492;28;45476;-82
2023/05/30 09:59:13;;;;;;;;;14.67;12.67;;;;;43.02;22.07;100243.19;5058706;28;45295;-80
2023/05/30 10:01:45;;;;;;;;;11.67;11.33;;;;;42.04;22.36;100237.47;5061215;28;45474;-81
2023/05/30 10:04:16;;;;;;;;;12.33;11.67;;;;;41.75;23.11;100159.19;5068819;28;46208;-78
2023/05/30 10:06:44;;;;;;;;;13.67;12.00;;;;;41.74;23.92;100209.56;5071428;28;45335;-79
2023/05/30 10:09:11;;;;;;;;;11.33;11.33;;;;;41.31;24.07;100247.00;5076839;28;45528;-77
2023/05/30 10:11:40;;;;;;;;;14.67;13.67;;;;;40.12;25.15;100245.31;5078184;28;45450;-79
2023/05/30 10:14:09;;;;;;;;;12.33;12.00;;;;;39.33;26.24;100241.09;5059863;28;45529;-79
2023/05/30 10:16:43;;;;;;;;;12.00;11.67;;;;;38.67;26.19;100236.41;5071154;27;45326;-78
2023/05/30 10:19:13;;;;;;;;;11.00;11.00;;;;;38.08;27.33;100243.66;5068956;28;45707;-77
2023/05/30 10:21:41;;;;;;;;;10.00;10.00;;;;;37.37;27.71;100229.94;5069851;28;45596;-79
2023/05/30 10:24:10;;;;;;;;;11.00;9.67;;;;;36.14;29.61;100235.69;5066496;27;47101;-78
2023/05/30 10:26:42;;;;;;;;;10.67;10.67;;;;;35.62;30.07;100245.34;5064441;28;45875;-76
2023/05/30 10:29:13;;;;;;;;;8.67;8.67;;;;;34.87;29.76;100132.66;5063484;28;45494;-79
2023/05/30 10:31:39;;;;;;;;;9.33;8.33;;;;;35.93;28.88;100246.47;5068653;27;45399;-78
2023/05/30 10:34:08;;;;;;;;;7.67;7.67;;;;;35.97;28.34;100241.66;5076532;28;45303;-77
2023/05/30 10:36:34;;;;;;;;;8.00;8.00;;;;;36.22;28.38;100243.25;5058191;28;45538;-79
2023/05/30 10:39:20;;;;;;;;;6.33;6.00;;;;;36.29;27.64;100195.53;5056620;28;45505;-80
2023/05/30 10:42:01;;;;;;;;;9.00;8.67;;;;;36.80;27.61;100183.09;5052797;28;45766;-80
2023/05/30 10:44:32;;;;;;;;;6.67;6.00;;;;;37.77;26.43;100243.63;5072826;28;45469;-80
2023/05/30 10:47:10;;;;;;;;;8.67;6.67;;;;;38.06;25.44;100231.13;5067294;28;45642;-80
2023/05/30 10:49:38;;;;;;;;;6.33;6.00;;;;;37.77;24.21;100224.56;5072380;28;45505;-79
2023/05/30 10:52:09;;;;;;;;;7.00;7.00;;;;;37.45;25.37;100191.13;5054312;28;45733;-81
2023/05/30 10:54:36;;;;;;;;;8.33;7.33;;;;;38.01;25.46;100229.66;5071189;28;45721;-76
2023/05/30 10:57:31;;;;;;;;;8.33;8.33;;;;;37.65;25.01;100100.28;5072960;28;45427;-77
2023/05/30 10:59:59;;;;;;;;;8.00;7.00;;;;;38.04;25.33;100223.06;5066429;28;45325;-80
2023/05/30 11:02:38;;;;;;;;;8.00;8.00;;;;;37.36;27.12;100218.16;5057891;28;45523;-81
2023/05/30 11:05:09;;;;;;;;;10.00;8.00;;;;;37.25;27.02;100218.25;5074328;28;45583;-79
2023/05/30 11:07:40;;;;;;;;;7.33;7.33;;;;;36.56;27.48;100178.72;5073981;28;45497;-80
2023/05/30 11:10:14;;;;;;;;;13.00;11.67;;;;;36.37;28.94;100222.06;5076112;28;45502;-78